This site, now in its 15th season, is a labour of love and fun from one of Ottawa's most avid time trialists and number crunchers. It adheres to and is permitted by the laws of Canada, promotes the objectives of every bicycle club whose results are shown, and is donated free of charge by myself for your enjoyment and usage. If you would like results from series you ride in to be shown here, give me (celia@drmath.ca) a shout!


Index Page
ATT OTT WTT AATT CFCTT VVVTT
Help resultformat:
Case-sensitive

OBC Open TT Series - 2011-Sep-08 - 15km (Rockliffe Pkwy) (EvtFactor = 0.9634)

Ottawa Weather (18:00): Mostly Cloudy. Temp.: 22C, Humidity: 60%, Dew Point: 14C, Wind: E 5km/h, Pressure: 101.7kPa, Vis: 24km, Humidex: 26.
Ottawa Weather (19:00): Mostly Cloudy. Temp.: 20C, Humidity: 68%, Dew Point: 14C, Wind: E 8km/h, Pressure: 101.7kPa, Vis: 24km, Humidex: *.
Ottawa Weather (20:00): Mostly Cloudy. Temp.: 18C, Humidity: 76%, Dew Point: 14C, Wind: NNW 5km/h, Pressure: 101.7kPa, Vis: 24km, Humidex: *.

Send photos with description (when/where/what) of yourself on or off of bike to celia@drmath.ca

Comments later - gone cycling, and then music playing, and then more cycling! :-)

These results were posted on the OBC site circa 10:00 on 2011-Sep-11 and are available here for your added pleasure and analysis.

(Lest complaints about me just lazily sucking in the results surface, I wish to make it perfectly clear that I would gladly do the data entry, getting the results up within a few of hours of the event, as history shows that I did for the WTT series for the decade beginning in 1998, and for the OTT series from 1999-2002 and again in 2006. The OBC Board however, not only won't let me volunteer here, but strangely enough they actually expelled me from the OBC for donating this time trial web site to you !)

 
 

BESTS?
 
1 Fillion, Aaron  OBC/RWR 18:13 49.405 1/88 VAM 1/11 0.9755
2 Hawkes, Craig CYC 19:29 46.193 2/88 VAM 2/11 1.0051
3 Schlatter, Sue  SRC/CYC 19:58 45.075 3/88 VBF 1/7 0.9556
4 Datars, Paul  OBC/RWR 20:06 44.776 4/88 VCM 1/22 0.9607
5 DeLuco, Matt --- 20:07 44.739 5/88 VAM 3/11 1.0200
6 Gee, Jon OBC 20:10 44.628 6/88 VBM 1/21 0.9018
7 Amos, Ron  OBC/RWR 20:27 44.010 7/88 VBM 2/21 0.8190
8 Hamilton, Peter OBC 20:30 43.902 8/88 VBM 3/21 0.9806
9 Pérès, Erwan TBR 20:37 43.654 9/88 VBM 4/21 0.9383
10 Katz, Joel  OBC/RWR 20:39 43.584 10/88 VCM 2/22 0.9784
11 Campbell, Colin  OBC/FC 20:41 43.513 11/88 VCM 3/22 0.9737
Diaz, Rodrigo  OBC/EUR 20:41 43.513 11/88 VAM 4/11 1.0417
Mullington, Chris WQW 20:41 43.513 11/88 VCM 3/22 1.0170
Y 14 Gee, Derek  OBC 20:43 43.443 14/88 MIM 1/2 1.0000
Michel, Alexandre  TTC 20:43 43.443 14/88 VAM 5/11 0.8975
16 Richer, Antoine --- 20:49 43.235 16/88 VAM 6/11 1.0739
17 Budgell, Glen  OBC 20:53 43.097 17/88 VCM 5/22 0.9460
18 Wolfe, Yariv OBC 20:58 42.925 18/88 VBM 5/21 1.0459
19 Danner, Dale EUR 21:03 42.755 19/88 VBM 6/21  
Y 20 Lacasse, Jeremie  OBC 21:06 42.654 20/88 CAM 1/1 1.0629
21 Burge, Craig  CYC 21:08 42.587 21/88 VCM 6/22 1.0024
Dal-Cin, Matteo  JET 21:08 42.587 21/88 SEM 1/3 0.6984
23 Gagnon, Alexandre  OBC 21:13 42.419 23/88 SEM 2/3 1.0189
24 Leslie, Brian OBC 21:19 42.220 24/88 VBM 7/21 0.9629
25 Henschel, Peter OBC 21:23 42.089 25/88 VCM 7/22 0.9472
26 DeVidi, Robert  OBC 21:25 42.023 26/88 VBM 8/21 0.9906
27 Bilenkey, David OBC/EUR 21:32 41.796 27/88 VBM 9/21 0.9678
28 Cameron, Allen  OBC/RWR 21:42 41.475 28/88 VCM 8/22 0.9636
Corner, Doug  OBC 21:42 41.475 28/88 VDM 1/6 0.9391
30 Blais, Bob OBC 21:56 41.033 30/88 VCM 9/22 0.9572
31 Dorego, Jean-Louis OBC 21:58 40.971 31/88 VDM 2/6 0.9618
32 Conn, Peter OBC 22:07 40.693 32/88 VBM 10/21 0.9294
33 Stephenson, Jennifer  RCP 22:08 40.663 33/88 VAF 1/6 0.9424
34 Skafel, Paul CYC 22:10 40.602 34/88 VAM 7/11 1.0023
35 Ohuiginn, Liam IND 22:11 40.571 35/88 SEM 3/3 0.9556
36 Posthuma, Hans  OBC 22:14 40.480 36/88 VCM 10/22 0.9213
37 Grace, Darrin  EUR 22:24 40.179 37/88 VBM 11/21 1.0135
Hamilton, Shawn  ABC 22:24 40.179 37/88 VBM 11/21 0.9956
39 Till, Michael WQW 22:26 40.119 39/88 VCM 11/22 0.9325
40 Schattmann, Peter OBC 22:35 39.852 40/88 VCM 12/22 1.0044
41 Hiscocks, Mark OBC 22:41 39.677 41/88 VAM 8/11 1.0562
42 Moerman, Bram  OBC 22:43 39.618 42/88 VDM 3/6 0.9890
43 Charlton, Christopher OBC 22:52 39.359 43/88 VCM 13/22 0.9740
44 Burge, Larry  OBC 22:54 39.301 44/88 VBM 13/21 0.9956
45 Moore, Jennifer OBC 22:56 39.244 45/88 VAF 2/6  
46 Drouin, Marcel OBC 23:06 38.961 46/88 VBM 14/21 1.0306
47 Farish, Neil  OBC/RWR 23:18 38.627 47/88 VCM 14/22 0.8266
48 Pazdzior, Ellen  OBC 23:22 38.516 48/88 VCF 1/4  
49 Thompson, William OBC 23:23 38.489 49/88 VBM 15/21 0.9069
50 Burdett, Avery  OBC 23:25 38.434 50/88 VEM 1/1 0.9936
Deschamps, Martin WQW 23:25 38.434 50/88 VAM 9/11 0.9872
52 Pehleman, Bob  OBC 23:28 38.352 52/88 VCM 15/22 0.9518
53 Yaeger, Dave  OBC 23:33 38.217 53/88 VCM 16/22 0.9376
54 Ingham, Alison  OBC/RWR 23:34 38.190 54/88 VBF 2/7 1.0344
55 Byway, Connor  OBC 23:38 38.082 55/88 MIM 2/2 1.0149
Deavy, Carol  OBC 23:38 38.082 55/88 VBF 3/7 0.9645
57 Tomka, Paul  OBC 23:40 38.028 57/88 VBM 16/21 1.0320
58 Jones, Amanda OBC 23:45 37.895 58/88 VAF 3/6 1.0602
59 Marleau, Dianne  OBC/RWR 23:52 37.709 59/88 VBF 4/7 0.9627
60 Simard, Martin EUR 23:56 37.604 60/88 VCM 17/22 1.0316
61 Hall, David  OBC 23:58 37.552 61/88 VBM 17/21 1.0000
62 Imbrogno, Giorgio  OBC 24:03 37.422 62/88 VDM 4/6 0.9814
63 Thompson, Daniel OBC 24:05 37.370 63/88 VBM 18/21 1.0209
64 Rivoche, Michael WQW 24:07 37.319 64/88 VCM 18/22 0.9371
65 Déry, Nicolas  OBC 24:14 37.139 65/88 VAM 10/11 1.0000
66 Czaban, Christina  OBC 24:16 37.088 66/88 SEF 1/1 1.0354
67 Meyer, Lisa  OBC 24:25 36.860 67/88 VCF 2/4 1.0041
68 McInnis, Celia  ABC/CYF 24:33 36.660 68/88 VCF 3/4 1.0267
69 Shaffer, Gordon --- 24:34 36.635 69/88 VBM 19/21 0.9858
70 Johnson, Laura  OBC/CYF 24:35 36.610 70/88 VAF 4/6 1.0391
Pavelich, John OBC 24:35 36.610 70/88 VCM 19/22 0.8866
72 Flynn, Emily  EMD 24:52 36.193 72/88 JUF 1/1 0.9662
73 Higgs, Sharolyn  OBC/CYF 24:56 36.096 73/88 VAF 5/6 1.0845
74 Guevremont, Marc OBC 25:11 35.738 74/88 VAM 11/11 0.9822
75 Couture, Sylvie  OBC 25:24 35.433 75/88 VBF 5/7  
German, Jennifer OBC 25:24 35.433 75/88 VBF 5/7 0.9708
77 Dal-Cin, Mauro OBC 25:28 35.340 77/88 VCM 20/22 1.0039
78 Janusauskas, Vytas  OBC 25:33 35.225 78/88 VCM 21/22 1.0237
79 Phillips, Ron OBC 25:50 34.839 79/88 VDM 5/6 0.8812
80 Dore, Morley OBC 26:05 34.505 80/88 VDM 6/6 0.9715
81 Ajersch, Mary  OBC 26:08 34.439 81/88 VEF 1/1 0.9753
82 Konantz, Patricia  OBC/RWR 26:20 34.177 82/88 VCF 4/4 1.1617
83 Douglas, Mark  OBC 26:27 34.026 83/88 VCM 22/22 1.0190
84 Caie, Kyle & Rab, Mark OBC 27:08 33.170 84/88 TTT 1/1  
85 McLaren, Louise  OBC 27:09 33.149 85/88 VBF 7/7 1.0316
86 Cooper, Dave --- 27:18 32.967 86/88 VBM 20/21 0.8070
87 Boudreau, Nathalie OBC 28:54 31.142 87/88 VAF 6/6 0.9209
88 Decorme, Stephane --- 28:58 31.070 88/88 VBM 21/21 1.0313
 
Average Speed of all of the above 88 finishes (1320km in 33:47:18):39.067
>>>Average of the Average Speeds for these 88 finishes39.399<<<
 

The number of data records shown above is 88
The server processing of your query took: 2 wallclock secs ( 0.20 usr + 0.01 sys = 0.21 CPU)

Thanks to our Helpers: Brian Armstrong, Julie Belanger, Neil Farish, Alex McKnight, John Ramcharan, Jess Raymond, Stephanie Rees.

     


Apr 22 (Good Friday)
May 3 (10km) May 5 May 10 (10km) May 12 May 17 May 17 (10km) May 19 May 24 May 24 (10km) May 26 May 31 May 31 (10km)
Jun 2 Jun 5 (40km) Jun 7 Jun 7 Jun 9 Jun 13 (10km) Jun 14 Jun 14 Jun 16 Jun 21 Jun 21 Jun 23 Jun 27 (10km) Jun 28 (Cancelled - Severe Thunderstorm Warning) Jun 28 (Cancelled - Severe Thunderstorm Warning) Jun 30
Jul 5 Jul 5 Jul 7 Jul 10 (40km) Jul 11 (10km) Jul 12 Jul 12 Jul 14 Jul 16 (18.1km) Jul 19 Jul 19 Jul 21 Jul 24 (40km) Jul 25 Jul 26 Jul 26 Jul 28
Aug 2 Aug 2 Aug 4 Aug 7 (40km) Aug 8 Aug 9 (cancelled - rain) Aug 9 Aug 11 Aug 14 (40km) Aug 15 Aug 16 Aug 16 Aug 18 Aug 23 Aug 23 Aug 25 Aug 30 Aug 30 (Invitational)
Sep 1 Sep 6
  Sep 8  
Sep 11 (40km) Sep 13 Sep 18 (40km) Sep 20 Sep 27

OTT Rankings
Best       Best by category
WTT Rankings for All Participants
5 Best Speeds (≥4 15km, ≤1 10km)     5 Best Speeds (≥4 15km, ≤1 10km) by category
OTT Best Three 15km Rankings
Overall     by category     age-Hcap Female   age-Hcap Male
[OWA]TT BAR Ranking
Overall     by category     Rider "Consistency-Graph"
ABC BAR Ranking
Overall     by category     Rider "Consistency-Graph"
Other years
TT Calculator All TT People All TT events
ABC Home VVV Home
CKAP GOLD MEDAL
Other Links

Note: OTT data from 2003 through 2006-Apr-14 and 2007-Apr-06-? and WTT from 2008-? is taken from the official OBC site.

Please send your comments and suggestions to: Celia McInnis
Copyright © 1998-2011 Celia McInnis. All rights reserved. Links are welcomed.